Tarrants, Missouri
Current Conditions -  °F | °C
As of 12:35 PM on Sunday 23 Nov 2014 (Local Time) from KPPQ Reporting Station
Overcast Overcast  
Wind Chill: 55°   Ceiling: 600
Heat Index: 55°   Visibility: 5mi
Dew Point: 53°   Wind: 8mph
Humidity: 92%   Direction: 150°SSE
Pressure: 29.47"   Gusts: NA
Location:  39.321°N, 91.1912°W
Report Text: KPPQ 231835Z AUTO 15007KT 5SM BKN006 OVC011 13/11 A2947 RMK AO2 P0009 T01260114 PWINO
Loading
Personal Weather Stations






























Interactive Weather Map New forecast layout! Learn more

10-Day Weather Forecast

Advertisements
Track Severe Weather on mobile